Terminal Aerodrome Forecast
Issued by NWS

Home | Current Version | Previous Version | Text Only | Print | Product List | Glossary On
Versions: 1 2 3 4 5 6 7 8 9 10 11 12 13 14 15 16 17 18 19 20 21 22 23 24 25 26 27 28 29 30 31 32 33 34 35
444
FTUS41 KGYX 231503 AAA
TAFMHT
TAF AMD
KMHT 231503Z 2315/2412 17006KT P6SM SCT012 BKN250
      TEMPO 2315/2317 BKN012
     FM232300 15004KT P6SM OVC012
     FM240500 14006KT 4SM BR OVC005=

USA.gov is the U.S. government's official web portal to all federal, state and local government web resources and services.